Marion, IL (62959)

9:53 AM CDT on May 21, 2019 (GMT -0500)
WB0VTM - HAM RADIO | | Change Station
Active Advisory: Lake Wind Advisory

Elev 492 ft 37.72 °N, 88.95 °W | Updated 6 seconds ago

Overcast
Overcast
56.1 °F
Feels Like 56.1 °F
N
2
Wind Variable Wind from NNE
Gusts 6.0 mph

Today
High -- | Low -- °F
--% Chance of Precip.
Yesterday
High -- | Low -- °F
Precip. -- in
Pressure 29.93 in
Visibility 10.0 miles
Clouds Overcast 600 ft
Dew Point 54 °F
Humidity 94%
Rainfall 1.25 in
Snow Depth Not available.
5:41 AM 8:03 PM
Waning Gibbous, 92% visible
METAR KMWA 211445Z 07009G15KT 10SM OVC006 13/12 A2993
Pressure 29.93 in
Visibility 10.0 miles
Clouds Overcast 600 ft
Dew Point 54 °F
Humidity 94%
Rainfall 1.25 in
Snow Depth Not available.
5:41 AM 8:03 PM
Waning Gibbous, 92% visible
METAR KMWA 211445Z 07009G15KT 10SM OVC006 13/12 A2993

Get Your Daily Forecast Email!

Thanks for signing up!

Be on the lookout for a verification email in your inbox.

You'll start receiving severe weather alerts in your inbox..

×

10-Day Weather Forecast

Almanac

Astronomy

May. 21, 2019 Rise Set
Actual Time
Civil Twilight
Nautical Twilight
Astronomical Twilight
Moon
Length of Visible Light
Length of Day
Tomorrow will be .
, % of the Moon is Illuminated

Today's Extremes

State Highs State Lows

Community

WunderPhotos

Category 6

Welcome to Category 6. This is the collective home for Weather Underground's featured writeups by Dr. Jeff Masters (right), Bob Henson (left), Chris Burt, and other regular contributors.

Nearby

Air Quality

  Air Quality AQ Index Pollutant
Not available.

Snow Depth

Station Depth Elevation

Earthquake Activity

City Distance Mag. Time & Date
Minimum magnitude displayed is 2.5.

Coastal Water Temperatures

Place Temperature

Stations

Nearby Weather Stations

Station Location Temp. Windchill Dew Point Humidity Wind Precip. Elev Updated Type
                   

Watches & Warnings

Lake Wind Advisory
Issued: 4:24 AM CDT May. 21, 2019 – National Weather Service

... Lake Wind Advisory now in effect from noon today to 9 PM CDT
this evening...

The lake Wind Advisory cover all of southeast Missouri, southern
Illinois, southwest Indiana, and western Kentucky.

* Timing... 1 PM CDT to 9 PM CDT.

* Winds... sustained 15 to 20 mph with occasional gusts of 25 to 30
mph, locally stronger along and west of the Mississippi River.

* Impacts... small water craft may encounter choppy waters. Winds
from approaching thunderstorms over southeast Missouri may
increase winds on waterways during the late afternoon.

Precautionary/preparedness actions...

A lake Wind Advisory indicates that winds will cause rough chop
on area lakes. Small boats will be especially prone to capsizing.



Rjp